広島空港の過去48時間の天気

広島空港 (New hiroshima)

現在時刻: 7/5 12:06 JST (7/5 03:06 UTC) 以下の時間は現地時間です。

過去48時間のMETAR気象情報
時間 風向 風速(m/s) 視程 気温(℃) 湿度(%) 気圧(hPa) 天気現象
5 11:00 南東 3 10km以上 26 84 1007
5 10:00 4 10km以上 26 84 1007
5 09:00 4 10km以上 25 89 1007
5 08:45 東北東 4 6000m 24 94 1007
5 08:00 5 4000m 23 94 1007 弱いしゅう雨 散在した霧 もや
5 07:41 5 4000m 23 100 1007 弱いしゅう雨 散在した霧 もや
5 07:18 4 4000m 23 94 1007 散在した霧 もや
5 07:00 東北東 5 4000m 23 100 1007 散在した霧 もや
5 06:10 4 3500m 23 94 1007 散在した霧 もや
4 22:00 東南東 3 10km以上 23 94 1010
4 21:00 東南東 3 10km以上 23 94 1010 弱いしゅう雨
4 20:00 東南東 4 10km以上 23 94 1009
4 19:00 東南東 4 10km以上 24 89 1009
4 18:00 東南東 4 10km以上 25 83 1009
4 17:00 3 10km以上 25 83 1009
4 16:00 4 10km以上 25 83 1009
4 15:00 東南東 3 10km以上 25 83 1010 周辺でしゅう雨
4 14:00 南東 3 10km以上 26 84 1010 周辺でしゅう雨
4 13:00 4 10km以上 24 89 1010
4 12:00 東南東 3 8000m 24 94 1011 弱いしゅう雨
4 11:48 4 6000m 24 94 1011 弱いしゅう雨
4 11:25 南南東 2 4000m 23 94 1011 弱いしゅう雨 もや
4 11:00 南東 3 10km以上 24 89 1011 弱いしゅう雨
4 10:00 東南東 3 8000m 24 94 1011 弱いしゅう雨 部分霧
4 09:00 東南東 4 4000m 24 94 1011 弱いしゅう雨 散在した霧 もや
4 08:48 5 4000m 24 94 1011 弱いしゅう雨 散在した霧 もや
4 08:27 東南東 5 3000m 23 100 1011 弱いしゅう雨 散在した霧 もや
4 08:00 東南東 3 1800m 23 100 1011 弱いしゅう雨 散在した霧 もや
4 07:35 東南東 4 1800m 23 100 1011 弱いしゅう雨 散在した霧 もや
4 07:20 東南東 4 1500m 23 100 1011 弱いしゅう雨 散在した霧 もや
4 07:09 4 800m 23 100 1011 弱いしゅう雨 霧
4 06:10 東南東 3 600m 23 100 1011 弱いしゅう雨 霧
3 22:00 北西 2 10km以上 25 83 1012
3 21:00 南西 2 10km以上 25 89 1012
3 20:00 不定 1 10km以上 25 89 1012
3 19:00 不定 1 10km以上 25 89 1012
3 18:00 南西 2 10km以上 26 84 1012
3 17:00 2 10km以上 27 79 1011
3 16:00 3 10km以上 28 70 1011
3 15:00 南南西 4 10km以上 30 66 1011
3 14:00 南南西 3 10km以上 29 66 1012
3 13:00 3 10km以上 28 74 1013
RJOA 050200Z 14005KT 090V180 9999 FEW004 SCT010 BKN020 26/23 Q1007
RJOA 050100Z 09008KT 070V130 9999 FEW005 SCT010 BKN030 26/23 Q1007
RJOA 050000Z 08008KT 9999 FEW003 SCT006 BKN030 25/23 Q1007
RJOA 042345Z 07008KT 6000 FEW002 SCT006 BKN030 24/23 Q1007 RMK 1ST002 3ST006 5CU030 A2975
RJOA 042300Z 08010KT 4000 -SHRA BCFG BR FEW000 SCT003 BKN005 23/22 Q1007
RJOA 042241Z 09009KT 070V130 4000 -SHRA BCFG BR FEW000 SCT003 BKN005 23/23 Q1007 RMK 1ST000 3ST003 6ST005 A2976 8000W FG SE-S AND SW
RJOA 042218Z 08008KT 4000 BCFG BR FEW000 SCT004 BKN006 23/22 Q1007 RMK 1ST000 3ST004 6ST006 A2976 FG BANK SE-S AND SW
RJOA 042200Z 07009KT 4000 BCFG BR FEW000 SCT006 BKN035 23/23 Q1007
RJOA 042110Z 08007KT 3500 BCFG BR FEW000 SCT045 BKN080 23/22 Q1007 RMK 1ST000 4SC045 7AC080 A2976 FG SE-S AND SW-W
RJOA 041300Z 11005KT 080V150 9999 FEW005 SCT007 BKN009 23/22 Q1010
RJOA 041200Z 11005KT 090V160 9999 -SHRA FEW008 BKN015 BKN035 23/22 Q1010
RJOA 041100Z 11007KT 9999 FEW010 BKN050 BKN100 23/22 Q1009
RJOA 041000Z 11007KT 090V150 9999 FEW009 SCT015 BKN040 24/22 Q1009
RJOA 040900Z 12007KT 080V150 9999 FEW010 BKN015 BKN045 25/22 Q1009
RJOA 040800Z 10006KT 060V170 9999 FEW010 SCT015 BKN090 25/22 Q1009
RJOA 040700Z 10008KT 9999 FEW010 SCT040 BKN070 25/22 Q1009
RJOA 040600Z 12006KT 080V170 9999 VCSH FEW010 SCT030 BKN060 25/22 Q1010
RJOA 040500Z 13005KT 080V190 9999 VCSH FEW010 SCT040 BKN100 26/23 Q1010
RJOA 040400Z 10007KT 060V130 9999 FEW003 SCT030 BKN080 24/22 Q1010
RJOA 040300Z 11006KT 080V160 8000 -SHRA FEW002 SCT008 BKN020 24/23 Q1011
RJOA 040248Z 10007KT 070V130 6000 -SHRA FEW001 SCT010 BKN020 24/23 Q1011 RMK 1ST001 3CU010 5CU020 A2985
RJOA 040225Z 16004KT 120V190 4000 -SHRA BR FEW004 SCT008 BKN012 23/22 Q1011 RMK 1ST004 3ST008 5CU012 A2988
RJOA 040200Z 13006KT 090V190 9999 -SHRA FEW004 SCT008 BKN020 24/22 Q1011
RJOA 040100Z 12005KT 090V160 8000 -SHRA PRFG FEW000 SCT008 BKN015 24/23 Q1011
RJOA 040000Z 11008KT 4000 -SHRA BCFG BR FEW000 SCT004 BKN008 24/23 Q1011
RJOA 032348Z 10009KT 070V140 4000 -SHRA BCFG BR FEW000 SCT003 BKN005 24/23 Q1011 RMK 1ST000 3ST003 5ST005 A2987 FG BANK SE AND S-SW
RJOA 032327Z 11009KT 080V140 3000 -SHRA BCFG BR FEW000 SCT002 BKN003 23/23 Q1011 RMK 1ST000 3ST002 5ST003 A2987 FG SE AND S-SW
RJOA 032300Z 12006KT 080V160 1800 -SHRA BCFG BR FEW000 SCT001 BKN003 23/23 Q1011
RJOA 032235Z 11007KT 1800 -SHRA BCFG BR FEW000 SCT001 BKN002 23/23 Q1011 RMK 1ST000 3ST001 5ST002 A2987 FG ALL QUAD
RJOA 032220Z 12007KT 080V150 1500 R10/P1800N -SHRA BCFG BR FEW000 SCT001 BKN002 23/23 Q1011 RMK 1ST000 4ST001 6ST002 A2988 FG ALL QUAD
RJOA 032209Z 10007KT 080V140 0800 R28/0350VP1800U -SHRA FG FEW000 BKN001 BKN002 23/23 Q1011 RMK 1ST000 5ST001 6ST002 A2987
RJOA 032110Z 11006KT 0600 R28/0300V0600D -SHRA FG FEW000 BKN001 BKN002 23/23 Q1011 RMK 1ST000 5ST001 6ST002 A2986
RJOA 031300Z 32003KT 9999 FEW015 SCT040 BKN120 25/22 Q1012
RJOA 031200Z 23003KT 9999 FEW015 SCT030 BKN140 25/23 Q1012
RJOA 031100Z VRB02KT 9999 FEW015 SCT030 BKN150 25/23 Q1012
RJOA 031000Z VRB02KT 9999 FEW015 SCT030 BKN130 25/23 Q1012
RJOA 030900Z 22004KT 190V250 9999 FEW015 SCT030 BKN130 26/23 Q1012
RJOA 030800Z 19004KT 170V240 9999 FEW015 SCT025 BKN130 27/23 Q1011
RJOA 030700Z 19005KT 140V230 9999 FEW015 SCT025 BKN130 28/22 Q1011
RJOA 030600Z 21008KT 150V260 9999 FEW015 SCT020 BKN160 30/23 Q1011
RJOA 030500Z 20005KT 150V250 9999 FEW020 BKN025 BKN/// 29/22 Q1012
RJOA 030400Z 19005KT 140V240 9999 FEW020 SCT040 BKN150 28/23 Q1013